createdAt,value
2017-06-26T00:00:45.303Z,10.10
2017-06-26T00:03:13.174Z,9.20
2017-06-26T00:05:40.688Z,10.60
2017-06-26T00:08:08.960Z,9.20
2017-06-26T00:10:36.743Z,11.33
2017-06-26T00:13:05.014Z,11.47
2017-06-26T00:15:33.292Z,9.60
2017-06-26T00:18:01.856Z,11.77
2017-06-26T00:20:29.349Z,9.43
2017-06-26T00:22:56.882Z,9.90
2017-06-26T00:25:24.690Z,10.20
2017-06-26T00:27:52.181Z,10.37
2017-06-26T00:30:19.683Z,11.70
2017-06-26T00:32:47.485Z,10.10
2017-06-26T00:35:14.984Z,10.50
2017-06-26T00:37:42.486Z,11.07
2017-06-26T00:40:10.360Z,9.80
2017-06-26T00:42:37.879Z,10.37
2017-06-26T00:45:05.381Z,9.83
2017-06-26T00:47:33.181Z,10.10
2017-06-26T00:50:00.690Z,11.67
2017-06-26T00:52:28.195Z,12.23
2017-06-26T00:54:55.990Z,11.20
2017-06-26T00:57:23.501Z,11.77
2017-06-26T00:59:51.008Z,11.87
2017-06-26T01:02:18.918Z,11.57
2017-06-26T01:04:46.420Z,12.40
2017-06-26T01:07:13.932Z,13.03
2017-06-26T01:09:41.725Z,11.67
2017-06-26T01:12:09.229Z,11.67
2017-06-26T01:14:36.735Z,12.40
2017-06-26T01:17:04.561Z,11.37
2017-06-26T01:19:32.070Z,10.73
2017-06-26T01:21:59.586Z,12.30
2017-06-26T01:24:27.402Z,12.20
2017-06-26T01:26:54.914Z,11.67
2017-06-26T01:29:23.175Z,11.60
2017-06-26T01:31:51.092Z,11.30
2017-06-26T01:34:18.590Z,13.70
2017-06-26T01:36:46.101Z,12.60
2017-06-26T01:39:13.892Z,11.40
2017-06-26T01:41:41.403Z,12.93
2017-06-26T01:44:08.915Z,11.70
2017-06-26T01:46:36.725Z,11.50
2017-06-26T01:49:04.220Z,12.70
2017-06-26T01:51:31.715Z,12.60
2017-06-26T01:53:59.543Z,12.20
2017-06-26T01:56:27.045Z,13.07
2017-06-26T01:58:54.555Z,12.40
2017-06-26T02:01:22.460Z,11.83
2017-06-26T02:03:49.970Z,13.20
2017-06-26T02:06:17.488Z,12.20
2017-06-26T02:08:45.532Z,13.97
2017-06-26T02:11:13.037Z,12.73
2017-06-26T02:13:41.312Z,11.90
2017-06-26T02:16:09.917Z,12.63
2017-06-26T02:18:37.430Z,12.50
2017-06-26T02:21:04.929Z,11.97
2017-06-26T02:23:33.508Z,12.43
2017-06-26T02:26:01.782Z,11.20
2017-06-26T02:28:30.065Z,15.23
2017-06-26T02:30:57.961Z,14.53
2017-06-26T02:33:25.469Z,14.67
2017-06-26T02:35:52.981Z,17.70
2017-06-26T02:38:20.852Z,15.60
2017-06-26T02:40:48.376Z,15.10
2017-06-26T02:43:15.880Z,14.33
2017-06-26T02:45:43.853Z,14.50
2017-06-26T02:48:11.366Z,14.60
2017-06-26T02:50:38.862Z,13.60
2017-06-26T02:53:06.667Z,13.40
2017-06-26T02:55:34.181Z,12.47
2017-06-26T02:58:01.695Z,13.60
2017-06-26T03:00:29.614Z,14.10
2017-06-26T03:02:57.119Z,14.67
2017-06-26T03:05:24.633Z,14.13
2017-06-26T03:07:52.489Z,13.00
2017-06-26T03:10:20.001Z,17.53
2017-06-26T03:12:47.504Z,14.50
2017-06-26T03:15:15.476Z,13.53
2017-06-26T03:17:42.984Z,11.87
2017-06-26T03:20:10.490Z,12.27
2017-06-26T03:22:38.478Z,15.20
2017-06-26T03:25:05.989Z,12.73
2017-06-26T03:27:34.260Z,10.93
2017-06-26T03:30:02.076Z,11.43
2017-06-26T03:32:29.582Z,10.57
2017-06-26T03:34:57.077Z,9.00
2017-06-26T03:37:24.877Z,9.43
2017-06-26T03:39:52.408Z,10.13
2017-06-26T03:42:19.898Z,9.60
2017-06-26T03:44:47.675Z,10.30
2017-06-26T03:47:15.171Z,9.40
2017-06-26T03:49:43.449Z,7.40
2017-06-26T03:52:12.049Z,12.50
2017-06-26T03:54:39.557Z,7.40
2017-06-26T03:57:07.055Z,8.73
2017-06-26T03:59:35.605Z,8.53
2017-06-26T04:02:03.112Z,7.70
2017-06-26T04:04:30.632Z,6.70
2017-06-26T04:06:58.443Z,8.13
2017-06-26T04:09:25.945Z,6.80
2017-06-26T04:11:53.437Z,6.97
2017-06-26T04:14:22.146Z,7.20
2017-06-26T04:16:49.654Z,7.60
2017-06-26T04:19:17.140Z,6.73
2017-06-26T04:21:45.766Z,10.10
2017-06-26T04:24:13.255Z,6.60
2017-06-26T04:26:40.761Z,6.70
2017-06-26T04:29:08.633Z,5.67
2017-06-26T04:31:36.143Z,6.20
2017-06-26T04:34:03.637Z,6.50
2017-06-26T04:36:31.626Z,7.50
2017-06-26T04:38:59.147Z,6.00
2017-06-26T04:41:26.654Z,7.07
2017-06-26T04:43:54.624Z,6.37
2017-06-26T04:46:22.125Z,7.90
2017-06-26T04:48:49.612Z,7.57
2017-06-26T04:51:17.623Z,6.63
2017-06-26T04:53:45.126Z,13.93
2017-06-26T04:56:12.625Z,7.10
2017-06-26T04:58:40.520Z,5.83
2017-06-26T05:01:08.017Z,7.00
2017-06-26T05:03:35.507Z,6.40
2017-06-26T05:06:03.483Z,7.03
2017-06-26T05:08:30.967Z,4.20
2017-06-26T05:10:58.469Z,4.53
2017-06-26T05:13:27.081Z,5.00
2017-06-26T05:15:54.608Z,4.97
2017-06-26T05:18:22.103Z,3.53
2017-06-26T05:20:49.978Z,4.10
2017-06-26T05:23:17.489Z,3.63
2017-06-26T05:25:45.003Z,3.67
2017-06-26T05:28:12.809Z,3.53
2017-06-26T05:30:40.319Z,3.47
2017-06-26T05:33:07.832Z,3.90
2017-06-26T05:35:35.596Z,3.10
2017-06-26T05:38:03.092Z,3.80
2017-06-26T05:40:30.592Z,3.80
2017-06-26T05:42:58.431Z,3.83
2017-06-26T05:45:25.941Z,3.17
2017-06-26T05:47:53.452Z,4.37
2017-06-26T05:50:21.228Z,3.57
2017-06-26T05:52:48.757Z,5.40
2017-06-26T05:55:16.254Z,4.10
2017-06-26T05:57:44.086Z,3.90
2017-06-26T06:00:11.613Z,4.20
2017-06-26T06:02:39.125Z,4.50
2017-06-26T06:05:06.929Z,4.53
2017-06-26T06:07:34.435Z,3.60
2017-06-26T06:10:01.935Z,3.73
2017-06-26T06:12:29.765Z,3.10
2017-06-26T06:14:57.328Z,3.13
2017-06-26T06:17:24.850Z,3.70
2017-06-26T06:19:52.750Z,4.27
2017-06-26T06:22:20.269Z,3.53
2017-06-26T06:24:48.549Z,3.60
2017-06-26T06:27:16.362Z,2.53
2017-06-26T06:29:43.854Z,4.73
2017-06-26T06:32:11.366Z,4.83
2017-06-26T06:34:39.168Z,3.20
2017-06-26T06:37:06.686Z,2.90
2017-06-26T06:39:34.952Z,3.17
2017-06-26T06:42:03.665Z,2.50
2017-06-26T06:44:31.181Z,4.30
2017-06-26T06:46:59.457Z,2.97
2017-06-26T06:49:27.282Z,2.30
2017-06-26T06:51:54.783Z,2.57
2017-06-26T06:54:22.321Z,3.30
2017-06-26T06:56:50.147Z,2.80
2017-06-26T06:59:17.690Z,2.50
2017-06-26T07:01:45.199Z,2.20
2017-06-26T07:04:13.038Z,2.97
2017-06-26T07:06:40.555Z,2.77
2017-06-26T07:09:08.074Z,4.40
2017-06-26T07:11:35.886Z,2.33
2017-06-26T07:14:03.414Z,3.10
2017-06-26T07:16:30.936Z,3.03
2017-06-26T07:18:58.767Z,3.03
2017-06-26T07:21:26.289Z,2.70
2017-06-26T07:23:53.799Z,3.53
2017-06-26T07:26:22.358Z,3.27
2017-06-26T07:28:49.891Z,4.50
2017-06-26T07:31:17.410Z,3.40
2017-06-26T07:33:46.036Z,3.97
2017-06-26T07:38:32.708Z,2.60
2017-06-26T07:41:00.504Z,2.73
2017-06-26T07:43:28.018Z,2.83
2017-06-26T07:45:55.531Z,2.87
2017-06-26T07:48:23.342Z,3.17
2017-06-26T07:50:50.878Z,3.03
2017-06-26T07:53:18.376Z,3.57
2017-06-26T07:55:47.070Z,5.80
2017-06-26T07:58:15.360Z,3.13
2017-06-26T08:00:43.634Z,3.70
2017-06-26T08:03:11.457Z,3.40
2017-06-26T08:05:38.981Z,3.20
2017-06-26T08:08:06.523Z,3.43
2017-06-26T08:10:34.452Z,4.30
2017-06-26T08:13:01.977Z,4.20
2017-06-26T08:15:29.504Z,3.87
2017-06-26T08:17:58.130Z,3.37
2017-06-26T08:20:25.655Z,4.17
2017-06-26T08:22:53.166Z,3.20
2017-06-26T08:25:21.041Z,3.33
2017-06-26T08:27:48.562Z,3.57
2017-06-26T08:30:16.098Z,3.60
2017-06-26T08:32:44.119Z,3.63
2017-06-26T08:35:11.626Z,4.00
2017-06-26T08:37:39.911Z,3.07
2017-06-26T08:40:07.821Z,4.80
2017-06-26T08:42:35.338Z,5.87
2017-06-26T08:45:02.901Z,5.90
2017-06-26T08:47:30.828Z,3.93
2017-06-26T08:49:58.348Z,7.37
2017-06-26T08:52:25.898Z,4.77
2017-06-26T08:54:53.796Z,4.33
2017-06-26T08:57:21.341Z,3.73
2017-06-26T08:59:48.864Z,3.20
2017-06-26T09:02:16.784Z,3.77
2017-06-26T09:04:44.309Z,5.03
2017-06-26T09:07:11.857Z,4.40
2017-06-26T09:09:39.768Z,4.00
2017-06-26T09:12:07.285Z,3.43
2017-06-26T09:14:35.612Z,3.73
2017-06-26T09:17:03.464Z,4.97
2017-06-26T09:19:30.975Z,4.27
2017-06-26T09:21:58.516Z,4.30
2017-06-26T09:24:26.350Z,9.13
2017-06-26T09:26:53.873Z,4.50
2017-06-26T09:29:21.421Z,5.03
2017-06-26T09:31:49.248Z,4.70
2017-06-26T09:34:16.771Z,4.93
2017-06-26T09:36:44.284Z,7.67
2017-06-26T09:39:12.242Z,5.30
2017-06-26T09:41:39.767Z,5.33
2017-06-26T09:44:07.290Z,4.70
2017-06-26T09:46:35.105Z,4.50
2017-06-26T09:49:02.635Z,4.70
2017-06-26T09:51:30.161Z,4.87
2017-06-26T09:53:57.980Z,4.90
2017-06-26T09:56:25.505Z,5.53
2017-06-26T09:58:53.021Z,5.13
2017-06-26T10:01:20.881Z,4.93
2017-06-26T10:03:48.405Z,5.07
2017-06-26T10:06:15.918Z,7.30
2017-06-26T10:08:43.777Z,5.70
2017-06-26T10:11:11.316Z,6.30
2017-06-26T10:13:38.850Z,5.73
2017-06-26T10:16:06.891Z,5.60
2017-06-26T10:18:34.395Z,5.20
2017-06-26T10:21:01.949Z,5.17
2017-06-26T10:23:29.971Z,5.17
2017-06-26T10:25:57.492Z,5.57
2017-06-26T10:28:25.036Z,4.97
2017-06-26T10:30:52.937Z,5.07
2017-06-26T10:33:20.472Z,4.60
2017-06-26T10:35:48.774Z,3.97
2017-06-26T10:38:16.766Z,4.67
2017-06-26T10:40:44.304Z,4.60
2017-06-26T10:43:11.827Z,4.47
2017-06-26T10:45:39.610Z,4.47
2017-06-26T10:48:07.126Z,4.87
2017-06-26T10:50:34.660Z,4.10
2017-06-26T10:53:02.608Z,4.30
2017-06-26T10:55:30.148Z,4.13
2017-06-26T10:57:58.433Z,3.90
2017-06-26T11:00:26.453Z,3.90
2017-06-26T11:02:53.970Z,4.23
2017-06-26T11:05:22.257Z,3.80
2017-06-26T11:07:50.244Z,3.90
2017-06-26T11:10:17.767Z,3.50
2017-06-26T11:12:46.104Z,2.90
2017-06-26T11:15:13.926Z,3.07
2017-06-26T11:17:41.468Z,2.93
2017-06-26T11:20:10.103Z,2.80
2017-06-26T11:22:37.953Z,2.10
2017-06-26T11:25:05.486Z,2.20
2017-06-26T11:27:33.783Z,1.80
2017-06-26T11:30:01.623Z,1.70
2017-06-26T11:32:29.142Z,1.30
2017-06-26T11:34:56.670Z,1.40
2017-06-26T11:37:24.465Z,1.40
2017-06-26T11:39:52.001Z,1.60
2017-06-26T11:42:19.523Z,2.30
2017-06-26T11:44:47.337Z,1.70
2017-06-26T11:47:15.007Z,2.07
2017-06-26T11:49:42.544Z,1.80
2017-06-26T11:52:10.375Z,1.90
2017-06-26T11:54:37.898Z,1.80
2017-06-26T11:57:05.423Z,1.93
2017-06-26T11:59:33.335Z,1.60
2017-06-26T12:02:00.910Z,1.60
2017-06-26T12:04:28.440Z,1.50
2017-06-26T12:06:56.412Z,2.13
2017-06-26T12:09:23.939Z,1.60
2017-06-26T12:11:52.222Z,1.50
2017-06-26T12:14:20.171Z,1.70
2017-06-26T12:16:47.664Z,1.60
2017-06-26T12:19:15.189Z,1.70
2017-06-26T12:21:43.130Z,6.10
2017-06-26T12:24:10.660Z,1.50
2017-06-26T12:26:38.168Z,1.93
2017-06-26T12:29:05.990Z,1.73
2017-06-26T12:31:33.528Z,1.93
2017-06-26T12:34:01.039Z,1.60
2017-06-26T12:36:29.097Z,2.10
2017-06-26T12:38:56.648Z,1.70
2017-06-26T12:41:24.168Z,2.30
2017-06-26T12:43:52.831Z,1.60
2017-06-26T12:46:20.361Z,2.10
2017-06-26T12:48:47.895Z,1.57
2017-06-26T12:51:15.717Z,1.80
2017-06-26T12:53:43.233Z,1.70
2017-06-26T12:56:10.760Z,1.60
2017-06-26T12:58:38.701Z,4.30
2017-06-26T13:01:06.222Z,1.57
2017-06-26T13:03:33.740Z,1.13
2017-06-26T13:06:02.377Z,1.70
2017-06-26T13:08:29.903Z,1.77
2017-06-26T13:10:57.418Z,1.60
2017-06-26T13:13:25.259Z,1.57
2017-06-26T13:15:52.784Z,1.80
2017-06-26T13:18:20.306Z,1.97
2017-06-26T13:20:48.144Z,1.80
2017-06-26T13:23:15.684Z,2.03
2017-06-26T13:25:43.210Z,1.73
2017-06-26T13:28:11.043Z,1.80
2017-06-26T13:30:38.589Z,1.57
2017-06-26T13:33:06.130Z,1.80
2017-06-26T13:35:34.094Z,1.77
2017-06-26T13:38:01.608Z,1.70
2017-06-26T13:40:29.238Z,1.80
2017-06-26T13:42:57.146Z,2.00
2017-06-26T13:45:24.694Z,2.10
2017-06-26T13:47:52.239Z,1.70
2017-06-26T13:50:20.165Z,1.70
2017-06-26T13:52:47.684Z,1.80
2017-06-26T13:55:15.197Z,1.43
2017-06-26T13:57:43.041Z,2.00
2017-06-26T14:00:10.558Z,1.57
2017-06-26T14:02:38.065Z,1.70
2017-06-26T14:05:06.669Z,1.50
2017-06-26T14:07:34.183Z,1.70
2017-06-26T14:10:01.710Z,1.77
2017-06-26T14:12:29.559Z,1.77
2017-06-26T14:14:57.090Z,3.20
2017-06-26T14:17:24.641Z,2.10
2017-06-26T14:19:52.476Z,2.00
2017-06-26T14:22:20.012Z,2.07
2017-06-26T14:24:47.534Z,2.00
2017-06-26T14:27:15.364Z,1.60
2017-06-26T14:29:42.880Z,1.90
2017-06-26T14:32:11.188Z,1.90
2017-06-26T14:34:39.058Z,1.60
2017-06-26T14:37:06.591Z,2.53
2017-06-26T14:39:34.884Z,2.17
2017-06-26T14:42:02.761Z,2.40
2017-06-26T14:44:30.291Z,2.27
2017-06-26T14:46:58.564Z,2.00
2017-06-26T14:49:26.487Z,1.90
2017-06-26T14:51:54.027Z,3.80
2017-06-26T14:54:21.541Z,1.80
2017-06-26T14:56:50.158Z,1.90
2017-06-26T14:59:17.692Z,1.67
2017-06-26T15:01:45.959Z,2.40
2017-06-26T15:04:13.790Z,1.80
2017-06-26T15:06:41.311Z,2.23
2017-06-26T15:09:08.825Z,2.17
2017-06-26T15:11:36.685Z,2.00
2017-06-26T15:14:04.236Z,1.93
2017-06-26T15:16:31.758Z,2.07
2017-06-26T15:18:59.688Z,3.30
2017-06-26T15:21:27.195Z,2.27
2017-06-26T15:23:55.030Z,2.40
2017-06-26T15:26:23.757Z,2.20
2017-06-26T15:28:51.289Z,4.07
2017-06-26T15:31:18.796Z,2.20
2017-06-26T15:33:46.655Z,2.90
2017-06-26T15:36:14.241Z,2.33
2017-06-26T15:38:41.781Z,2.33
2017-06-26T15:41:09.643Z,2.50
2017-06-26T15:43:37.155Z,2.27
2017-06-26T15:46:05.443Z,2.37
2017-06-26T15:48:33.347Z,2.57
2017-06-26T15:51:00.880Z,2.27
2017-06-26T15:53:28.416Z,2.57
2017-06-26T15:55:56.278Z,2.63
2017-06-26T15:58:23.790Z,3.50
2017-06-26T16:00:51.315Z,2.50
2017-06-26T16:03:19.896Z,2.23
2017-06-26T16:05:47.436Z,2.50
2017-06-26T16:08:14.949Z,2.47
2017-06-26T16:10:42.764Z,2.10
2017-06-26T16:13:10.298Z,2.77
2017-06-26T16:15:37.829Z,2.80
2017-06-26T16:18:05.695Z,2.53
2017-06-26T16:20:33.217Z,2.70
2017-06-26T16:23:01.567Z,2.70
2017-06-26T16:25:29.424Z,3.67
2017-06-26T16:27:56.939Z,2.63
2017-06-26T16:30:24.448Z,3.10
2017-06-26T16:32:52.295Z,2.80
2017-06-26T16:35:19.821Z,2.67
2017-06-26T16:37:47.351Z,2.93
2017-06-26T16:40:15.202Z,2.60
2017-06-26T16:42:42.709Z,4.07
2017-06-26T16:45:11.030Z,2.50
2017-06-26T16:47:38.876Z,2.93
2017-06-26T16:50:06.416Z,3.23
2017-06-26T16:52:33.965Z,3.20
2017-06-26T16:55:02.572Z,2.63
2017-06-26T16:57:30.112Z,2.70
2017-06-26T16:59:58.429Z,2.53
2017-06-26T17:02:26.314Z,2.87
2017-06-26T17:04:53.850Z,2.07
2017-06-26T17:07:21.418Z,3.40
2017-06-26T17:09:49.413Z,2.30
2017-06-26T17:12:16.965Z,2.67
2017-06-26T17:14:44.498Z,2.40
2017-06-26T17:17:12.405Z,5.00
2017-06-26T17:19:39.918Z,3.77
2017-06-26T17:22:07.451Z,3.10
2017-06-26T17:24:35.366Z,3.27
2017-06-26T17:27:02.909Z,2.87
2017-06-26T17:29:30.439Z,3.23
2017-06-26T17:31:58.273Z,3.20
2017-06-26T17:34:25.813Z,3.60
2017-06-26T17:36:53.373Z,3.63
2017-06-26T17:39:21.299Z,4.17
2017-06-26T17:41:48.836Z,5.30
2017-06-26T17:44:16.373Z,3.07
2017-06-26T17:46:44.248Z,2.97
2017-06-26T17:49:11.782Z,3.03
2017-06-26T17:51:39.303Z,3.23
2017-06-26T17:54:07.130Z,2.80
2017-06-26T17:56:34.668Z,4.03
2017-06-26T17:59:02.228Z,2.60
2017-06-26T18:01:30.054Z,2.80
2017-06-26T18:03:57.612Z,3.10
2017-06-26T18:06:25.144Z,4.03
2017-06-26T18:08:52.951Z,3.00
2017-06-26T18:11:20.592Z,3.77
2017-06-26T18:13:48.102Z,2.83
2017-06-26T18:16:16.060Z,2.83
2017-06-26T18:18:43.637Z,2.87
2017-06-26T18:21:11.209Z,3.43
2017-06-26T18:23:39.592Z,3.50
2017-06-26T18:26:07.156Z,6.03
2017-06-26T18:28:34.699Z,3.37
2017-06-26T18:31:02.612Z,3.30
2017-06-26T18:33:30.151Z,3.10
2017-06-26T18:35:57.701Z,5.23
2017-06-26T18:38:25.567Z,3.37
2017-06-26T18:40:53.115Z,3.40
2017-06-26T18:43:20.664Z,3.93
2017-06-26T18:45:48.575Z,3.33
2017-06-26T18:48:16.116Z,3.53
2017-06-26T18:50:43.657Z,3.30
2017-06-26T18:53:11.585Z,3.57
2017-06-26T18:55:39.097Z,3.60
2017-06-26T18:58:06.635Z,4.50
2017-06-26T19:00:34.554Z,4.03
2017-06-26T19:03:02.068Z,4.40
2017-06-26T19:05:29.592Z,4.20
2017-06-26T19:07:57.532Z,5.20
2017-06-26T19:10:25.049Z,6.87
2017-06-26T19:12:52.648Z,3.50
2017-06-26T19:15:20.657Z,4.60
2017-06-26T19:17:48.196Z,4.10
2017-06-26T19:20:15.718Z,3.70
2017-06-26T19:22:43.711Z,5.53
2017-06-26T19:25:11.267Z,3.37
2017-06-26T19:27:38.798Z,3.90
2017-06-26T19:30:06.656Z,3.30
2017-06-26T19:32:34.214Z,3.50
2017-06-26T19:35:01.720Z,3.60
2017-06-26T19:37:29.670Z,3.90
2017-06-26T19:39:57.214Z,4.00
2017-06-26T19:42:24.766Z,5.17
2017-06-26T19:44:52.786Z,4.40
2017-06-26T19:47:20.348Z,3.80
2017-06-26T19:49:47.896Z,6.03
2017-06-26T19:52:15.880Z,4.83
2017-06-26T19:54:43.424Z,6.33
2017-06-26T19:57:10.946Z,5.57
2017-06-26T19:59:39.608Z,5.63
2017-06-26T20:02:07.172Z,5.57
2017-06-26T20:04:34.702Z,5.60
2017-06-26T20:07:02.573Z,7.27
2017-06-26T20:09:30.137Z,7.20
2017-06-26T20:11:57.751Z,12.17
2017-06-26T20:14:25.690Z,15.50
2017-06-26T20:16:53.247Z,12.80
2017-06-26T20:19:20.821Z,9.00
2017-06-26T20:21:48.662Z,8.17
2017-06-26T20:24:16.217Z,7.70
2017-06-26T20:26:43.758Z,18.13
2017-06-26T20:29:11.623Z,36.70
2017-06-26T20:31:39.167Z,7.63
2017-06-26T20:34:06.721Z,7.63
2017-06-26T20:36:34.572Z,5.20
2017-06-26T20:39:02.098Z,5.73
2017-06-26T20:41:29.622Z,7.43
2017-06-26T20:43:57.453Z,6.90
2017-06-26T20:46:24.958Z,7.10
2017-06-26T20:48:52.487Z,7.57
2017-06-26T20:51:21.143Z,8.40
2017-06-26T20:53:48.651Z,7.87
2017-06-26T20:56:16.174Z,7.97
2017-06-26T20:58:43.990Z,8.10
2017-06-26T21:01:11.547Z,8.03
2017-06-26T21:03:39.093Z,9.30
2017-06-26T21:06:06.987Z,8.00
2017-06-26T21:08:34.498Z,9.70
2017-06-26T21:11:02.807Z,14.53
2017-06-26T21:13:30.691Z,9.07
2017-06-26T21:15:58.202Z,8.93
2017-06-26T21:18:26.492Z,9.00
2017-06-26T21:20:55.081Z,8.30
2017-06-26T21:23:22.615Z,9.00
2017-06-26T21:25:50.148Z,8.83
2017-06-26T21:28:17.999Z,8.60
2017-06-26T21:30:45.536Z,13.30
2017-06-26T21:33:13.061Z,10.70
2017-06-26T21:35:41.004Z,9.03
2017-06-26T21:38:08.542Z,9.40
2017-06-26T21:40:36.057Z,8.43
2017-06-26T21:43:04.686Z,9.10
2017-06-26T21:45:32.208Z,11.50
2017-06-26T21:48:00.502Z,13.43
2017-06-26T21:50:28.463Z,13.30
2017-06-26T21:52:55.989Z,10.80
2017-06-26T21:55:23.563Z,9.90
2017-06-26T21:57:51.475Z,10.20
2017-06-26T22:00:18.994Z,8.20
2017-06-26T22:02:46.488Z,8.90
2017-06-26T22:05:14.292Z,8.63
2017-06-26T22:07:41.846Z,12.00
2017-06-26T22:10:09.374Z,8.40
2017-06-26T22:12:37.195Z,7.80
2017-06-26T22:15:04.725Z,7.90
2017-06-26T22:17:32.247Z,7.27
2017-06-26T22:20:00.147Z,6.93
2017-06-26T22:22:27.658Z,6.97
2017-06-26T22:24:55.957Z,7.17
2017-06-26T22:27:23.849Z,7.40
2017-06-26T22:29:51.380Z,9.10
2017-06-26T22:32:18.905Z,6.90
2017-06-26T22:34:46.840Z,7.30
2017-06-26T22:37:14.381Z,7.40
2017-06-26T22:39:41.913Z,7.33
2017-06-26T22:42:10.502Z,7.80
2017-06-26T22:44:38.804Z,7.10
2017-06-26T22:47:06.326Z,7.37
2017-06-26T22:49:34.251Z,7.80
2017-06-26T22:52:01.771Z,7.07
2017-06-26T22:54:29.316Z,7.60
2017-06-26T22:56:57.153Z,7.47
2017-06-26T22:59:24.695Z,7.20
2017-06-26T23:01:52.223Z,8.37
2017-06-26T23:04:20.127Z,7.03
2017-06-26T23:06:47.641Z,7.93
2017-06-26T23:09:15.926Z,8.40
2017-06-26T23:11:44.552Z,7.27
2017-06-26T23:14:12.055Z,6.93
2017-06-26T23:16:39.585Z,8.47
2017-06-26T23:19:07.543Z,7.60
2017-06-26T23:21:35.067Z,7.40
2017-06-26T23:24:03.352Z,10.03
2017-06-26T23:26:31.131Z,8.07
2017-06-26T23:28:58.638Z,8.03
2017-06-26T23:31:26.154Z,7.20
2017-06-26T23:33:54.005Z,7.03
2017-06-26T23:36:21.530Z,8.03
2017-06-26T23:38:49.829Z,8.47
2017-06-26T23:41:17.800Z,6.87
2017-06-26T23:43:46.074Z,8.20
2017-06-26T23:46:14.349Z,7.00
2017-06-26T23:48:42.970Z,8.03
2017-06-26T23:51:10.482Z,7.60
2017-06-26T23:53:37.998Z,8.50
2017-06-26T23:56:05.857Z,8.57
2017-06-26T23:58:33.382Z,8.47
